Gouwestroom — PDGR — position and weather

sailwx.info

Track history (hours):
 
Tides and Currents Weather Stations Pressure Air Temp Water Temp Dewpoint Dewpoint Depression Visibility Wind Speed Wind Dir Waves Ship Positions

Gouwestroom

Last reported at 2018-Apr-25 18:30 UTC. Time now 2018-Apr-25 18:34 UTC.
Position N 51°49' E 004°53'.

Length 20 m; draft 2.4 m.

Type: Tug. MMSI: 246166000.

Date/timePositionNaut miles runAvg speedWind from/ knotsBaromVisibWave heightAir tempDewpointWater temp
2018-Apr-25 18:30N 51°49' E 004°53'0 0.0
2018-Apr-25 18:00N 51°49' E 004°53'0 0.0
2018-Apr-25 17:30N 51°49' E 004°53'0 0.0
2018-Apr-25 17:00N 51°49' E 004°53'0 0.0
2018-Apr-25 16:30N 51°49' E 004°53'0 0.0
2018-Apr-25 16:00N 51°49' E 004°53'0 0.0
2018-Apr-25 15:30N 51°49' E 004°53'0 0.0
2018-Apr-25 15:00N 51°49' E 004°53'0 0.0
2018-Apr-25 14:30N 51°49' E 004°53'0 0.0
2018-Apr-25 14:01N 51°49' E 004°53'0 0.2
2018-Apr-25 13:31N 51°49' E 004°53'0 0.0
2018-Apr-25 13:00N 51°49' E 004°53'0 0.0
2018-Apr-25 12:31N 51°49' E 004°53'0 0.0
2018-Apr-25 12:00N 51°49' E 004°53'0 0.0
2018-Apr-25 11:31N 51°49' E 004°53'0 0.0
2018-Apr-25 11:01N 51°49' E 004°53'0 0.0
2018-Apr-25 10:30N 51°49' E 004°53'0 0.0
2018-Apr-25 10:00N 51°49' E 004°53'0 0.0
2018-Apr-25 09:29N 51°49' E 004°53'0 0.0
2018-Apr-25 08:57N 51°49' E 004°53'0 0.0
2018-Apr-25 08:30N 51°49' E 004°53'0 0.0
2018-Apr-25 08:00N 51°49' E 004°53'0 0.0
2018-Apr-25 07:30N 51°49' E 004°53'0 0.1
2018-Apr-25 06:34N 51°49' E 004°53'0 0.0
2018-Apr-25 06:26N 51°49' E 004°53'0 0.0
2018-Apr-25 05:59N 51°49' E 004°53'0 0.0
2018-Apr-25 05:18N 51°49' E 004°53'0 0.0
2018-Apr-25 05:00N 51°49' E 004°53'0 0.0
2018-Apr-25 04:28N 51°49' E 004°53'0 0.0
2018-Apr-25 04:01N 51°49' E 004°53'0 0.0
2018-Apr-25 03:26N 51°49' E 004°53'0 0.0
2018-Apr-25 03:00N 51°49' E 004°53'0 0.0
2018-Apr-25 02:27N 51°49' E 004°53'0 0.0
2018-Apr-25 01:59N 51°49' E 004°53'0 0.0
2018-Apr-25 01:27N 51°49' E 004°53'0 0.0
2018-Apr-25 01:00N 51°49' E 004°53'0 0.0
2018-Apr-25 00:28N 51°49' E 004°53'0 0.0
2018-Apr-24 23:59N 51°49' E 004°53'0 0.0
2018-Apr-24 23:25N 51°49' E 004°53'0 0.0
2018-Apr-24 22:56N 51°49' E 004°53'0 0.0
2018-Apr-24 21:43N 51°49' E 004°53'0 0.0
2018-Apr-24 20:30N 51°49' E 004°53'0 0.0
2018-Apr-24 19:51N 51°49' E 004°53'0 0.0
2018-Apr-24 13:26N 51°49' E 004°53'1 1.5
2018-Apr-24 13:00N 51°49' E 004°52'4 8.0
2018-Apr-24 12:29N 51°49' E 004°45'3 6.4
2018-Apr-24 12:00N 51°50' E 004°40'3 6.0
2018-Apr-24 11:30N 51°53' E 004°39'3 5.8
2018-Apr-24 11:00N 51°54' E 004°35'4 7.3
2018-Apr-24 10:31N 51°54' E 004°29'5 9.1
2018-Apr-24 10:00N 51°54' E 004°22'3 6.6
2018-Apr-24 09:30N 51°54' E 004°16'0 0.0
2018-Apr-24 09:00N 51°54' E 004°16'0 0.0
2018-Apr-24 08:30N 51°54' E 004°16'1 1.5
2018-Apr-24 08:00N 51°53' E 004°16'0 0.2
2018-Apr-24 07:30N 51°53' E 004°16'0 0.3
2018-Apr-24 07:00N 51°53' E 004°17'0 0.1
2018-Apr-24 06:30N 51°53' E 004°16'0 0.1
2018-Apr-24 06:01N 51°53' E 004°16'0 0.2
2018-Apr-24 05:31N 51°53' E 004°16'0 0.2
2018-Apr-24 05:00N 51°53' E 004°17'0 0.5
2018-Apr-24 04:30N 51°53' E 004°16'1 1.5
2018-Apr-24 04:00N 51°54' E 004°16'0 0.0
2018-Apr-24 03:30N 51°54' E 004°16'0 0.0
2018-Apr-24 03:00N 51°54' E 004°16'0 0.0
2018-Apr-24 02:30N 51°54' E 004°16'0 0.0
2018-Apr-24 02:00N 51°54' E 004°16'0 0.0
2018-Apr-24 01:30N 51°54' E 004°16'0 0.0
2018-Apr-24 01:00N 51°54' E 004°16'0 0.0
2018-Apr-24 00:30N 51°54' E 004°16'0 0.0
2018-Apr-24 00:00N 51°54' E 004°16'0 0.0
2018-Apr-23 23:30N 51°54' E 004°16'0 0.0
2018-Apr-23 23:00N 51°54' E 004°16'0 0.0
2018-Apr-23 22:30N 51°54' E 004°16'0 0.0
2018-Apr-23 22:00N 51°54' E 004°16'0 0.0
2018-Apr-23 21:30N 51°54' E 004°16'0 0.0
2018-Apr-23 21:00N 51°54' E 004°16'0 0.0
2018-Apr-23 20:30N 51°54' E 004°16'0 0.0
2018-Apr-23 20:00N 51°54' E 004°16'0 0.0
2018-Apr-23 19:30N 51°54' E 004°16'0 0.0
2018-Apr-23 19:00N 51°54' E 004°16'0 0.0
2018-Apr-23 18:30N 51°54' E 004°16'0 0.0
2018-Apr-23 18:00N 51°54' E 004°16'0 0.0
2018-Apr-23 17:30N 51°54' E 004°16'0 0.0
2018-Apr-23 17:00N 51°54' E 004°16'0 0.0
2018-Apr-23 16:30N 51°54' E 004°16'0 0.0
2018-Apr-23 16:00N 51°54' E 004°16'1 1.4
2018-Apr-23 15:30N 51°53' E 004°16'0 0.0
2018-Apr-23 15:00N 51°53' E 004°16'0 0.1
2018-Apr-23 14:31N 51°53' E 004°16'0 0.2
2018-Apr-23 14:01N 51°53' E 004°16'0 0.1
2018-Apr-23 13:31N 51°53' E 004°16'0 0.0
2018-Apr-23 13:00N 51°53' E 004°16'0 0.2
2018-Apr-23 12:31N 51°53' E 004°16'0 0.3
2018-Apr-23 12:01N 51°53' E 004°17'0 0.3
2018-Apr-23 11:31N 51°53' E 004°16'0 0.1
2018-Apr-23 11:00N 51°53' E 004°16'1 1.5
2018-Apr-23 10:30N 51°54' E 004°16'0 0.0
2018-Apr-23 10:00N 51°54' E 004°16'0 0.8
2018-Apr-23 09:30N 51°53' E 004°16'0 0.0
2018-Apr-23 09:01N 51°53' E 004°17'0 0.7
2018-Apr-23 08:30N 51°53' E 004°16'0 0.1
2018-Apr-23 08:00N 51°53' E 004°16'0 0.5
2018-Apr-23 07:31N 51°53' E 004°16'0 0.3
2018-Apr-23 07:00N 51°53' E 004°16'0 0.1
2018-Apr-23 06:30N 51°53' E 004°16'0 0.3
2018-Apr-23 06:00N 51°53' E 004°16'0 0.1
2018-Apr-23 05:30N 51°53' E 004°16'0 0.5
2018-Apr-23 05:00N 51°53' E 004°16'0 0.8
2018-Apr-23 04:30N 51°54' E 004°16'0 0.0
2018-Apr-23 04:00N 51°54' E 004°16'0 0.0
2018-Apr-23 03:30N 51°54' E 004°16'0 0.0
2018-Apr-23 03:00N 51°54' E 004°16'0 0.0
2018-Apr-23 02:30N 51°54' E 004°16'0 0.0
2018-Apr-23 02:00N 51°54' E 004°16'0 0.0
2018-Apr-23 01:30N 51°54' E 004°16'0 0.0
2018-Apr-23 01:00N 51°54' E 004°16'0 0.0
2018-Apr-23 00:30N 51°54' E 004°16'0 0.0
2018-Apr-23 00:00N 51°54' E 004°16'0 0.0
2018-Apr-22 23:30N 51°54' E 004°16'0 0.0
2018-Apr-22 23:00N 51°54' E 004°16'0 0.0
2018-Apr-22 22:30N 51°54' E 004°16'0 0.0
2018-Apr-22 22:00N 51°54' E 004°16'0 0.0
2018-Apr-22 21:30N 51°54' E 004°16'0 0.0
2018-Apr-22 21:00N 51°54' E 004°16'0 0.0
2018-Apr-22 20:30N 51°54' E 004°16'0 0.0
2018-Apr-22 20:00N 51°54' E 004°16'0 0.0
2018-Apr-22 19:30N 51°54' E 004°16'0 0.0
2018-Apr-22 19:00N 51°54' E 004°16'0 0.0
2018-Apr-22 18:30N 51°54' E 004°16'0 0.0
2018-Apr-22 18:00N 51°54' E 004°16'0 0.0
2018-Apr-22 17:30N 51°54' E 004°16'0 0.0
2018-Apr-22 17:00N 51°54' E 004°16'0 0.0
2018-Apr-22 16:30N 51°54' E 004°16'0 0.0
2018-Apr-22 16:00N 51°54' E 004°16'0 0.4
2018-Apr-22 15:30N 51°53' E 004°16'0 0.1
2018-Apr-22 15:01N 51°53' E 004°16'0 0.3
2018-Apr-22 14:30N 51°53' E 004°16'0 0.3
2018-Apr-22 14:00N 51°53' E 004°16'0 0.4
2018-Apr-22 13:30N 51°54' E 004°16'0 0.0
2018-Apr-22 13:00N 51°54' E 004°16'0 0.7
2018-Apr-22 12:30N 51°53' E 004°16'0 0.2
2018-Apr-22 12:00N 51°53' E 004°16'0 0.1
2018-Apr-22 11:30N 51°53' E 004°16'0 0.2
2018-Apr-22 11:01N 51°53' E 004°16'0 0.6
2018-Apr-22 10:30N 51°54' E 004°16'0 0.0
2018-Apr-22 10:00N 51°54' E 004°16'0 0.5
2018-Apr-22 09:30N 51°53' E 004°16'0 0.3
2018-Apr-22 09:00N 51°53' E 004°16'0 0.3
2018-Apr-22 08:30N 51°53' E 004°17'0 0.1
2018-Apr-22 08:00N 51°53' E 004°17'0 0.3
2018-Apr-22 07:30N 51°53' E 004°16'0 0.1
2018-Apr-22 07:00N 51°53' E 004°16'0 0.3
2018-Apr-22 06:30N 51°53' E 004°16'0 0.0
2018-Apr-22 06:00N 51°53' E 004°16'0 0.0
2018-Apr-22 05:30N 51°53' E 004°16'0 0.0
2018-Apr-22 05:00N 51°53' E 004°16'0 0.0
2018-Apr-22 04:30N 51°53' E 004°16'0 0.8
2018-Apr-22 04:00N 51°54' E 004°16'0 0.0
2018-Apr-22 03:30N 51°54' E 004°16'0 0.0
2018-Apr-22 03:00N 51°54' E 004°16'0 0.0
2018-Apr-22 02:30N 51°54' E 004°16'0 0.0
2018-Apr-22 02:00N 51°54' E 004°16'0 0.0
2018-Apr-22 01:30N 51°54' E 004°16'0 0.0
2018-Apr-22 01:00N 51°54' E 004°16'0 0.0
2018-Apr-22 00:30N 51°54' E 004°16'0 0.0
2018-Apr-22 00:00N 51°54' E 004°16'0 0.0
2018-Apr-21 23:30N 51°54' E 004°16'0 0.0
2018-Apr-21 23:00N 51°54' E 004°16'0 0.0
2018-Apr-21 22:30N 51°54' E 004°16'0 0.0
2018-Apr-21 22:00N 51°54' E 004°16'0 0.0
2018-Apr-21 21:30N 51°54' E 004°16'0 0.0
2018-Apr-21 21:00N 51°54' E 004°16'0 0.0
2018-Apr-21 20:30N 51°54' E 004°16'0 0.0
2018-Apr-21 20:00N 51°54' E 004°16'0 0.0
2018-Apr-21 19:30N 51°54' E 004°16'0 0.0
2018-Apr-21 19:00N 51°54' E 004°16'0 0.0
2018-Apr-21 18:30N 51°54' E 004°16'0 0.0
2018-Apr-21 18:00N 51°54' E 004°16'0 0.0
2018-Apr-21 17:30N 51°54' E 004°16'0 0.0
2018-Apr-21 17:00N 51°54' E 004°16'0 0.0
2018-Apr-21 16:30N 51°54' E 004°16'0 0.0
2018-Apr-21 16:00N 51°54' E 004°16'0 0.0
2018-Apr-21 15:30N 51°54' E 004°16'0 0.4
2018-Apr-21 15:00N 51°53' E 004°16'0 0.0
2018-Apr-21 14:31N 51°53' E 004°16'0 0.3
2018-Apr-21 14:00N 51°53' E 004°17'0 0.4
2018-Apr-21 13:30N 51°53' E 004°16'0 0.1
2018-Apr-21 13:01N 51°53' E 004°16'0 0.2
2018-Apr-21 12:30N 51°53' E 004°17'0 0.3
2018-Apr-21 12:00N 51°53' E 004°16'0 0.2
2018-Apr-21 11:30N 51°53' E 004°16'0 0.2
2018-Apr-21 11:00N 51°53' E 004°17'0 0.5
2018-Apr-21 10:30N 51°54' E 004°16'0 0.0
2018-Apr-21 10:00N 51°54' E 004°16'0 0.4
2018-Apr-21 09:30N 51°53' E 004°16'0 0.1
2018-Apr-21 09:00N 51°53' E 004°16'0 0.2
2018-Apr-21 08:30N 51°53' E 004°16'0 0.4
2018-Apr-21 08:00N 51°53' E 004°17'0 0.3
2018-Apr-21 07:30N 51°53' E 004°16'0 0.1
2018-Apr-21 07:00N 51°53' E 004°16'0 0.2
2018-Apr-21 06:31N 51°53' E 004°17'0 0.3
2018-Apr-21 06:00N 51°53' E 004°16'0 0.2
2018-Apr-21 05:30N 51°53' E 004°17'0 0.1
2018-Apr-21 05:01N 51°53' E 004°17'0 0.0
2018-Apr-21 04:30N 51°53' E 004°17'0 0.7
2018-Apr-21 04:00N 51°54' E 004°16'0 0.0
2018-Apr-21 03:30N 51°54' E 004°16'0 0.0
2018-Apr-21 03:00N 51°54' E 004°16'0 0.0
2018-Apr-21 02:30N 51°54' E 004°16'0 0.0
2018-Apr-21 02:00N 51°54' E 004°16'0 0.0
2018-Apr-21 01:30N 51°54' E 004°16'0 0.0
2018-Apr-21 01:00N 51°54' E 004°16'0 0.0
2018-Apr-21 00:30N 51°54' E 004°16'0 0.0
2018-Apr-21 00:00N 51°54' E 004°16'0 0.0
2018-Apr-20 23:30N 51°54' E 004°16'0 0.0
2018-Apr-20 23:00N 51°54' E 004°16'0 0.0
2018-Apr-20 22:30N 51°54' E 004°16'0 0.0
2018-Apr-20 22:00N 51°54' E 004°16'0 0.0
2018-Apr-20 21:30N 51°54' E 004°16'0 0.0
2018-Apr-20 21:00N 51°54' E 004°16'0 0.0
2018-Apr-20 20:30N 51°54' E 004°16'0 0.0
2018-Apr-20 20:00N 51°54' E 004°16'0 0.0
2018-Apr-20 19:30N 51°54' E 004°16'0 0.0
2018-Apr-20 19:00N 51°54' E 004°16'0 0.0
2018-Apr-20 18:30N 51°54' E 004°16'0 0.0
2018-Apr-20 18:00N 51°54' E 004°16'0 0.0
2018-Apr-20 17:30N 51°54' E 004°16'0 0.0
2018-Apr-20 17:00N 51°54' E 004°16'0 0.0
2018-Apr-20 16:30N 51°54' E 004°16'0 0.0
2018-Apr-20 16:00N 51°54' E 004°16'0 0.3
2018-Apr-20 15:30N 51°53' E 004°16'0 0.2
2018-Apr-20 15:00N 51°54' E 004°16'0 0.6
2018-Apr-20 14:31N 51°53' E 004°17'0 0.3
2018-Apr-20 14:00N 51°53' E 004°16'0 0.3
2018-Apr-20 13:30N 51°54' E 004°16'0 0.6
2018-Apr-20 13:00N 51°53' E 004°17'0 0.3
2018-Apr-20 12:30N 51°53' E 004°17'0 0.7
2018-Apr-20 12:00N 51°53' E 004°17'0 0.8
2018-Apr-20 11:30N 51°53' E 004°17'0 0.3
2018-Apr-20 11:00N 51°53' E 004°17'0 0.6
2018-Apr-20 10:30N 51°53' E 004°17'0 0.1
2018-Apr-20 10:00N 51°53' E 004°17'0 0.3
2018-Apr-20 09:30N 51°53' E 004°17'0 0.1
2018-Apr-20 09:00N 51°53' E 004°17'0 0.3
2018-Apr-20 08:30N 51°53' E 004°17'0 0.2
2018-Apr-20 08:00N 51°53' E 004°17'0 0.1
2018-Apr-20 07:31N 51°53' E 004°17'0 0.1
2018-Apr-20 07:00N 51°53' E 004°17'0 0.8
2018-Apr-20 06:30N 51°54' E 004°16'0 0.5
2018-Apr-20 06:00N 51°53' E 004°17'0 0.2
2018-Apr-20 05:30N 51°53' E 004°16'0 0.1
2018-Apr-20 05:00N 51°53' E 004°16'0 0.0
2018-Apr-20 04:30N 51°53' E 004°16'0 0.5
2018-Apr-20 04:00N 51°54' E 004°16'0 0.0
2018-Apr-20 03:30N 51°54' E 004°16'0 0.0
2018-Apr-20 03:00N 51°54' E 004°16'0 0.0
2018-Apr-20 02:30N 51°54' E 004°16'0 0.0
2018-Apr-20 02:00N 51°54' E 004°16'0 0.0
2018-Apr-20 01:30N 51°54' E 004°16'0 0.0
2018-Apr-20 01:00N 51°54' E 004°16'0 0.0
2018-Apr-20 00:30N 51°54' E 004°16'0 0.0
2018-Apr-20 00:00N 51°54' E 004°16'0 0.0
2018-Apr-19 23:30N 51°54' E 004°16'0 0.0
2018-Apr-19 23:00N 51°54' E 004°16'0 0.0
2018-Apr-19 22:30N 51°54' E 004°16'0 0.0
2018-Apr-19 22:00N 51°54' E 004°16'0 0.0
2018-Apr-19 21:30N 51°54' E 004°16'0 0.0
2018-Apr-19 21:00N 51°54' E 004°16'0 0.0
2018-Apr-19 20:30N 51°54' E 004°16'0 0.0
2018-Apr-19 20:00N 51°54' E 004°16'0 0.0
2018-Apr-19 19:30N 51°54' E 004°16'0 0.0
2018-Apr-19 19:00N 51°54' E 004°16'0 0.0
2018-Apr-19 18:30N 51°54' E 004°16'0 0.0
2018-Apr-19 18:00N 51°54' E 004°16'0 0.0
2018-Apr-19 17:30N 51°54' E 004°16'0 0.0
2018-Apr-19 17:00N 51°54' E 004°16'0 0.0
2018-Apr-19 16:30N 51°54' E 004°16'0 0.0
2018-Apr-19 16:00N 51°54' E 004°16'0 0.0
2018-Apr-19 15:30N 51°54' E 004°16'0 0.0
2018-Apr-19 15:00N 51°54' E 004°16'0 0.4
2018-Apr-19 14:30N 51°53' E 004°16'0 0.1
2018-Apr-19 14:01N 51°53' E 004°16'0 0.4
2018-Apr-19 13:30N 51°54' E 004°16'0 0.1
2018-Apr-19 13:00N 51°54' E 004°16'0 0.3
2018-Apr-19 12:30N 51°53' E 004°16'0 0.3
2018-Apr-19 12:01N 51°54' E 004°16'0 0.3
2018-Apr-19 11:30N 51°53' E 004°16'0 0.1
2018-Apr-19 11:01N 51°53' E 004°16'0 0.5
2018-Apr-19 10:30N 51°54' E 004°16'0 0.0
2018-Apr-19 10:00N 51°54' E 004°16'0 0.3
2018-Apr-19 09:30N 51°53' E 004°16'0 0.2
2018-Apr-19 09:00N 51°54' E 004°16'0 0.3
2018-Apr-19 08:30N 51°53' E 004°16'0 0.0
2018-Apr-19 08:00N 51°53' E 004°16'0 0.1
2018-Apr-19 07:30N 51°53' E 004°16'0 0.1
2018-Apr-19 07:00N 51°54' E 004°16'0 0.2
2018-Apr-19 06:30N 51°54' E 004°16'0 0.1
2018-Apr-19 06:00N 51°54' E 004°16'0 0.1
2018-Apr-19 05:31N 51°53' E 004°16'0 0.3
2018-Apr-19 05:00N 51°54' E 004°16'0 0.0
2018-Apr-19 04:30N 51°54' E 004°16'0 0.1
2018-Apr-19 04:00N 51°54' E 004°16'0 0.1
2018-Apr-19 03:30N 51°54' E 004°16'0 0.0
2018-Apr-19 03:00N 51°54' E 004°16'0 0.0
2018-Apr-19 02:30N 51°54' E 004°16'0 0.0
2018-Apr-19 02:00N 51°54' E 004°16'0 0.0
2018-Apr-19 01:30N 51°54' E 004°16'0 0.0
2018-Apr-19 01:00N 51°54' E 004°16'0 0.0
2018-Apr-19 00:30N 51°54' E 004°16'0 0.0
2018-Apr-19 00:00N 51°54' E 004°16'0 0.0
2018-Apr-18 23:30N 51°54' E 004°16'0 0.0
2018-Apr-18 23:00N 51°54' E 004°16'0 0.0
2018-Apr-18 22:30N 51°54' E 004°16'0 0.0
2018-Apr-18 22:00N 51°54' E 004°16'0 0.0
2018-Apr-18 21:30N 51°54' E 004°16'0 0.0
2018-Apr-18 21:00N 51°54' E 004°16'0 0.0
2018-Apr-18 20:30N 51°54' E 004°16'0 0.0
2018-Apr-18 20:00N 51°54' E 004°16'0 0.0
2018-Apr-18 19:30N 51°54' E 004°16'0 0.0
2018-Apr-18 19:00N 51°54' E 004°16'0 0.0
2018-Apr-18 18:30N 51°54' E 004°16'0 0.0
2018-Apr-18 18:00N 51°54' E 004°16'0 0.0
2018-Apr-18 17:30N 51°54' E 004°16'0 0.0
2018-Apr-18 17:01N 51°54' E 004°16'0 0.0
2018-Apr-18 16:31N 51°54' E 004°16'0 0.0
2018-Apr-18 16:01N 51°54' E 004°16'0 0.2
2018-Apr-18 15:31N 51°54' E 004°16'0 0.1
2018-Apr-18 15:00N 51°53' E 004°16'0 0.1
2018-Apr-18 14:31N 51°53' E 004°16'0 0.3
2018-Apr-18 14:00N 51°54' E 004°16'0 0.0
2018-Apr-18 13:30N 51°54' E 004°16'0 0.0
2018-Apr-18 13:01N 51°54' E 004°16'0 0.0
2018-Apr-18 12:30N 51°54' E 004°16'0 0.0
2018-Apr-18 12:00N 51°54' E 004°16'0 0.0
2018-Apr-18 11:30N 51°54' E 004°16'0 0.1
2018-Apr-18 11:01N 51°54' E 004°16'0 0.1
2018-Apr-18 10:31N 51°54' E 004°16'0 0.4
2018-Apr-18 10:01N 51°53' E 004°16'0 0.0
2018-Apr-18 09:31N 51°53' E 004°16'0 0.0
2018-Apr-18 09:01N 51°53' E 004°16'0 0.3
2018-Apr-18 08:30N 51°53' E 004°17'3 5.5
2018-Apr-18 07:57N 51°54' E 004°21'4 9.5
2018-Apr-18 07:30N 51°54' E 004°28'4 7.2
2018-Apr-18 07:00N 51°54' E 004°34'4 8.6
2018-Apr-18 06:30N 51°51' E 004°39'3 6.8
2018-Apr-18 06:00N 51°49' E 004°44'4 8.3
2018-Apr-18 05:30N 51°49' E 004°50'1 2.2
2018-Apr-18 04:53N 51°49' E 004°53'0 0.0
2018-Apr-18 04:30N 51°49' E 004°53'0 0.0
2018-Apr-18 04:00N 51°49' E 004°53'0 0.0
2018-Apr-18 03:30N 51°49' E 004°53'0 0.0
2018-Apr-18 03:00N 51°49' E 004°53'0 0.0
2018-Apr-18 02:30N 51°49' E 004°53'0 0.0
2018-Apr-18 02:00N 51°49' E 004°53'0 0.0
2018-Apr-18 01:30N 51°49' E 004°53'0 0.0
2018-Apr-18 01:01N 51°49' E 004°53'0 0.0
2018-Apr-18 00:30N 51°49' E 004°53'0 0.0
2018-Apr-18 00:01N 51°49' E 004°53'0 0.0
2018-Apr-17 23:30N 51°49' E 004°53'0 0.0
2018-Apr-17 23:01N 51°49' E 004°53'0 0.0
2018-Apr-17 22:31N 51°49' E 004°53'0 0.0
2018-Apr-17 22:01N 51°49' E 004°53'0 0.0
2018-Apr-17 21:31N 51°49' E 004°53'0 0.0
2018-Apr-17 21:01N 51°49' E 004°53'0 0.0
2018-Apr-17 20:31N 51°49' E 004°53'0 0.0
2018-Apr-17 20:01N 51°49' E 004°53'0 0.0
2018-Apr-17 19:30N 51°49' E 004°53'0 0.0
2018-Apr-17 19:00N 51°49' E 004°53'0 0.0
2018-Apr-17 18:30N 51°49' E 004°53'0 0.0
2018-Apr-17 18:00N 51°49' E 004°53'0 0.0
2018-Apr-17 17:30N 51°49' E 004°53'0 0.0
2018-Apr-17 17:00N 51°49' E 004°53'0 0.0
2018-Apr-17 16:31N 51°49' E 004°53'0 0.0
2018-Apr-17 16:00N 51°49' E 004°53'0 0.0
2018-Apr-17 15:30N 51°49' E 004°53'0 0.0
2018-Apr-17 15:01N 51°49' E 004°53'0 0.0
2018-Apr-17 14:30N 51°49' E 004°53'0 0.1
2018-Apr-17 14:01N 51°49' E 004°53'0 0.1
2018-Apr-17 13:30N 51°49' E 004°53'0 0.0
2018-Apr-17 13:00N 51°49' E 004°53'0 0.0
2018-Apr-17 12:31N 51°49' E 004°53'0 0.0
2018-Apr-17 12:00N 51°49' E 004°53'0 0.0
2018-Apr-17 11:31N 51°49' E 004°53'0 0.0
2018-Apr-17 11:01N 51°49' E 004°53'0 0.0
2018-Apr-17 10:29N 51°49' E 004°53'0 0.0
2018-Apr-17 10:00N 51°49' E 004°53'0 0.0
2018-Apr-17 09:30N 51°49' E 004°53'0 0.0
2018-Apr-17 09:00N 51°49' E 004°53'0 0.0
2018-Apr-17 08:30N 51°49' E 004°53'0 0.0
2018-Apr-17 07:59N 51°49' E 004°53'0 0.0
2018-Apr-17 07:30N 51°49' E 004°53'0 0.0
2018-Apr-17 07:01N 51°49' E 004°53'0 0.0
2018-Apr-17 06:24N 51°49' E 004°53'0 0.0
2018-Apr-17 06:00N 51°49' E 004°53'0 0.0
2018-Apr-17 05:28N 51°49' E 004°53'0 0.0
2018-Apr-17 05:00N 51°49' E 004°53'0 0.0
2018-Apr-17 04:30N 51°49' E 004°53'0 0.0
2018-Apr-17 03:59N 51°49' E 004°53'0 0.0
2018-Apr-17 03:31N 51°49' E 004°53'0 0.0
2018-Apr-17 03:00N 51°49' E 004°53'0 0.0
2018-Apr-17 02:30N 51°49' E 004°53'0 0.0
2018-Apr-17 02:00N 51°49' E 004°53'0 0.0
2018-Apr-17 01:31N 51°49' E 004°53'0 0.0
2018-Apr-17 01:00N 51°49' E 004°53'0 0.0
2018-Apr-17 00:30N 51°49' E 004°53'0 0.0
2018-Apr-17 00:00N 51°49' E 004°53'0 0.0
2018-Apr-16 23:30N 51°49' E 004°53'0 0.0
2018-Apr-16 23:00N 51°49' E 004°53'0 0.0
2018-Apr-16 22:30N 51°49' E 004°53'0 0.0
2018-Apr-16 22:00N 51°49' E 004°53'0 0.0
2018-Apr-16 21:30N 51°49' E 004°53'0 0.0
2018-Apr-16 21:00N 51°49' E 004°53'0 0.0
2018-Apr-16 20:31N 51°49' E 004°53'0 0.0
2018-Apr-16 20:00N 51°49' E 004°53'0 0.0
2018-Apr-16 19:29N 51°49' E 004°53'0 0.0
2018-Apr-16 19:00N 51°49' E 004°53'0 0.0
2018-Apr-16 18:29N 51°49' E 004°53'0 0.0
2018-Apr-16 18:00N 51°49' E 004°53'0 0.0
2018-Apr-16 17:30N 51°49' E 004°53'0 0.0
2018-Apr-16 17:00N 51°49' E 004°53'0 0.0
2018-Apr-16 16:29N 51°49' E 004°53'0 0.0
2018-Apr-16 16:00N 51°49' E 004°53'0 0.0
2018-Apr-16 15:30N 51°49' E 004°53'0 0.0
2018-Apr-16 15:00N 51°49' E 004°53'0 0.0
2018-Apr-16 14:30N 51°49' E 004°53'0 0.0
2018-Apr-16 14:00N 51°49' E 004°53'0 0.2
2018-Apr-16 13:31N 51°49' E 004°53'0 0.0
2018-Apr-16 13:00N 51°49' E 004°53'0 0.0
2018-Apr-16 12:30N 51°49' E 004°53'0 0.0
2018-Apr-16 12:00N 51°49' E 004°53'0 0.0
2018-Apr-16 11:30N 51°49' E 004°53'0 0.0
2018-Apr-16 11:00N 51°49' E 004°53'0 0.0
2018-Apr-16 10:30N 51°49' E 004°53'0 0.0
2018-Apr-16 10:00N 51°49' E 004°53'0 0.0
2018-Apr-16 09:30N 51°49' E 004°53'0 0.0
2018-Apr-16 09:01N 51°49' E 004°53'0 0.0
2018-Apr-16 08:30N 51°49' E 004°53'0 0.0
2018-Apr-16 08:00N 51°49' E 004°53'0 0.0
2018-Apr-16 07:30N 51°49' E 004°53'0 0.0
2018-Apr-16 07:00N 51°49' E 004°53'0 0.0
2018-Apr-16 06:30N 51°49' E 004°53'0 0.0
2018-Apr-16 06:01N 51°49' E 004°53'0 0.0
2018-Apr-16 05:31N 51°49' E 004°53'0 0.0
2018-Apr-16 04:59N 51°49' E 004°53'0 0.0
2018-Apr-16 04:30N 51°49' E 004°53'0 0.0
2018-Apr-16 04:00N 51°49' E 004°53'0 0.0
2018-Apr-16 03:31N 51°49' E 004°53'0 0.0
2018-Apr-16 03:00N 51°49' E 004°53'0 0.0
2018-Apr-16 02:29N 51°49' E 004°53'0 0.0
2018-Apr-16 02:01N 51°49' E 004°53'0 0.0
2018-Apr-16 01:31N 51°49' E 004°53'0 0.0
2018-Apr-16 01:00N 51°49' E 004°53'0 0.0
2018-Apr-16 00:31N 51°49' E 004°53'0 0.0
2018-Apr-16 00:00N 51°49' E 004°53'0 0.0
2018-Apr-15 23:30N 51°49' E 004°53'0 0.0
2018-Apr-15 23:00N 51°49' E 004°53'0 0.0
2018-Apr-15 22:30N 51°49' E 004°53'0 0.0
2018-Apr-15 22:00N 51°49' E 004°53'0 0.0
2018-Apr-15 21:30N 51°49' E 004°53'0 0.0
2018-Apr-15 21:00N 51°49' E 004°53'0 0.0
2018-Apr-15 20:30N 51°49' E 004°53'0 0.0
2018-Apr-15 20:00N 51°49' E 004°53'0 0.0
2018-Apr-15 19:30N 51°49' E 004°53'0 0.0
2018-Apr-15 19:00N 51°49' E 004°53'0 0.0
2018-Apr-15 18:30N 51°49' E 004°53'  
Track history (hours):
 
Tides and Currents Weather Stations Pressure Air Temp Water Temp Dewpoint Dewpoint Depression Visibility Wind Speed Wind Dir Waves Ship Positions

Gouwestroom

Last reported at 2018-Apr-25 18:30 UTC. Time now 2018-Apr-25 18:34 UTC.
Position N 51°49' E 004°53'.

Length 20 m; draft 2.4 m.

Type: Tug. MMSI: 246166000.

Date/timePositionNaut miles runAvg speedWind from/ knotsBaromVisibWave heightAir tempDewpointWater temp
2018-Apr-25 18:30N 51°49' E 004°53'0 0.0
2018-Apr-25 18:00N 51°49' E 004°53'0 0.0
2018-Apr-25 17:30N 51°49' E 004°53'0 0.0
2018-Apr-25 17:00N 51°49' E 004°53'0 0.0
2018-Apr-25 16:30N 51°49' E 004°53'0 0.0
2018-Apr-25 16:00N 51°49' E 004°53'0 0.0
2018-Apr-25 15:30N 51°49' E 004°53'0 0.0
2018-Apr-25 15:00N 51°49' E 004°53'0 0.0
2018-Apr-25 14:30N 51°49' E 004°53'0 0.0
2018-Apr-25 14:01N 51°49' E 004°53'0 0.2
2018-Apr-25 13:31N 51°49' E 004°53'0 0.0
2018-Apr-25 13:00N 51°49' E 004°53'0 0.0
2018-Apr-25 12:31N 51°49' E 004°53'0 0.0
2018-Apr-25 12:00N 51°49' E 004°53'0 0.0
2018-Apr-25 11:31N 51°49' E 004°53'0 0.0
2018-Apr-25 11:01N 51°49' E 004°53'0 0.0
2018-Apr-25 10:30N 51°49' E 004°53'0 0.0
2018-Apr-25 10:00N 51°49' E 004°53'0 0.0
2018-Apr-25 09:29N 51°49' E 004°53'0 0.0
2018-Apr-25 08:57N 51°49' E 004°53'0 0.0
2018-Apr-25 08:30N 51°49' E 004°53'0 0.0
2018-Apr-25 08:00N 51°49' E 004°53'0 0.0
2018-Apr-25 07:30N 51°49' E 004°53'0 0.1
2018-Apr-25 06:34N 51°49' E 004°53'0 0.0
2018-Apr-25 06:26N 51°49' E 004°53'0 0.0
2018-Apr-25 05:59N 51°49' E 004°53'0 0.0
2018-Apr-25 05:18N 51°49' E 004°53'0 0.0
2018-Apr-25 05:00N 51°49' E 004°53'0 0.0
2018-Apr-25 04:28N 51°49' E 004°53'0 0.0
2018-Apr-25 04:01N 51°49' E 004°53'0 0.0
2018-Apr-25 03:26N 51°49' E 004°53'0 0.0
2018-Apr-25 03:00N 51°49' E 004°53'0 0.0
2018-Apr-25 02:27N 51°49' E 004°53'0 0.0
2018-Apr-25 01:59N 51°49' E 004°53'0 0.0
2018-Apr-25 01:27N 51°49' E 004°53'0 0.0
2018-Apr-25 01:00N 51°49' E 004°53'0 0.0
2018-Apr-25 00:28N 51°49' E 004°53'0 0.0
2018-Apr-24 23:59N 51°49' E 004°53'0 0.0
2018-Apr-24 23:25N 51°49' E 004°53'0 0.0
2018-Apr-24 22:56N 51°49' E 004°53'0 0.0
2018-Apr-24 21:43N 51°49' E 004°53'0 0.0
2018-Apr-24 20:30N 51°49' E 004°53'0 0.0
2018-Apr-24 19:51N 51°49' E 004°53'0 0.0
2018-Apr-24 13:26N 51°49' E 004°53'1 1.5
2018-Apr-24 13:00N 51°49' E 004°52'4 8.0
2018-Apr-24 12:29N 51°49' E 004°45'3 6.4
2018-Apr-24 12:00N 51°50' E 004°40'3 6.0
2018-Apr-24 11:30N 51°53' E 004°39'3 5.8
2018-Apr-24 11:00N 51°54' E 004°35'4 7.3
2018-Apr-24 10:31N 51°54' E 004°29'5 9.1
2018-Apr-24 10:00N 51°54' E 004°22'3 6.6
2018-Apr-24 09:30N 51°54' E 004°16'0 0.0
2018-Apr-24 09:00N 51°54' E 004°16'0 0.0
2018-Apr-24 08:30N 51°54' E 004°16'1 1.5
2018-Apr-24 08:00N 51°53' E 004°16'0 0.2
2018-Apr-24 07:30N 51°53' E 004°16'0 0.3
2018-Apr-24 07:00N 51°53' E 004°17'0 0.1
2018-Apr-24 06:30N 51°53' E 004°16'0 0.1
2018-Apr-24 06:01N 51°53' E 004°16'0 0.2
2018-Apr-24 05:31N 51°53' E 004°16'0 0.2
2018-Apr-24 05:00N 51°53' E 004°17'0 0.5
2018-Apr-24 04:30N 51°53' E 004°16'1 1.5
2018-Apr-24 04:00N 51°54' E 004°16'0 0.0
2018-Apr-24 03:30N 51°54' E 004°16'0 0.0
2018-Apr-24 03:00N 51°54' E 004°16'0 0.0
2018-Apr-24 02:30N 51°54' E 004°16'0 0.0
2018-Apr-24 02:00N 51°54' E 004°16'0 0.0
2018-Apr-24 01:30N 51°54' E 004°16'0 0.0
2018-Apr-24 01:00N 51°54' E 004°16'0 0.0
2018-Apr-24 00:30N 51°54' E 004°16'0 0.0
2018-Apr-24 00:00N 51°54' E 004°16'0 0.0
2018-Apr-23 23:30N 51°54' E 004°16'0 0.0
2018-Apr-23 23:00N 51°54' E 004°16'0 0.0
2018-Apr-23 22:30N 51°54' E 004°16'0 0.0
2018-Apr-23 22:00N 51°54' E 004°16'0 0.0
2018-Apr-23 21:30N 51°54' E 004°16'0 0.0
2018-Apr-23 21:00N 51°54' E 004°16'0 0.0
2018-Apr-23 20:30N 51°54' E 004°16'0 0.0
2018-Apr-23 20:00N 51°54' E 004°16'0 0.0
2018-Apr-23 19:30N 51°54' E 004°16'0 0.0
2018-Apr-23 19:00N 51°54' E 004°16'0 0.0
2018-Apr-23 18:30N 51°54' E 004°16'0 0.0
2018-Apr-23 18:00N 51°54' E 004°16'0 0.0
2018-Apr-23 17:30N 51°54' E 004°16'0 0.0
2018-Apr-23 17:00N 51°54' E 004°16'0 0.0
2018-Apr-23 16:30N 51°54' E 004°16'0 0.0
2018-Apr-23 16:00N 51°54' E 004°16'1 1.4
2018-Apr-23 15:30N 51°53' E 004°16'0 0.0
2018-Apr-23 15:00N 51°53' E 004°16'0 0.1
2018-Apr-23 14:31N 51°53' E 004°16'0 0.2
2018-Apr-23 14:01N 51°53' E 004°16'0 0.1
2018-Apr-23 13:31N 51°53' E 004°16'0 0.0
2018-Apr-23 13:00N 51°53' E 004°16'0 0.2
2018-Apr-23 12:31N 51°53' E 004°16'0 0.3
2018-Apr-23 12:01N 51°53' E 004°17'0 0.3
2018-Apr-23 11:31N 51°53' E 004°16'0 0.1
2018-Apr-23 11:00N 51°53' E 004°16'1 1.5
2018-Apr-23 10:30N 51°54' E 004°16'0 0.0
2018-Apr-23 10:00N 51°54' E 004°16'0 0.8
2018-Apr-23 09:30N 51°53' E 004°16'0 0.0
2018-Apr-23 09:01N 51°53' E 004°17'0 0.7
2018-Apr-23 08:30N 51°53' E 004°16'0 0.1
2018-Apr-23 08:00N 51°53' E 004°16'0 0.5
2018-Apr-23 07:31N 51°53' E 004°16'0 0.3
2018-Apr-23 07:00N 51°53' E 004°16'0 0.1
2018-Apr-23 06:30N 51°53' E 004°16'0 0.3
2018-Apr-23 06:00N 51°53' E 004°16'0 0.1
2018-Apr-23 05:30N 51°53' E 004°16'0 0.5
2018-Apr-23 05:00N 51°53' E 004°16'0 0.8
2018-Apr-23 04:30N 51°54' E 004°16'0 0.0
2018-Apr-23 04:00N 51°54' E 004°16'0 0.0
2018-Apr-23 03:30N 51°54' E 004°16'0 0.0
2018-Apr-23 03:00N 51°54' E 004°16'0 0.0
2018-Apr-23 02:30N 51°54' E 004°16'0 0.0
2018-Apr-23 02:00N 51°54' E 004°16'0 0.0
2018-Apr-23 01:30N 51°54' E 004°16'0 0.0
2018-Apr-23 01:00N 51°54' E 004°16'0 0.0
2018-Apr-23 00:30N 51°54' E 004°16'0 0.0
2018-Apr-23 00:00N 51°54' E 004°16'0 0.0
2018-Apr-22 23:30N 51°54' E 004°16'0 0.0
2018-Apr-22 23:00N 51°54' E 004°16'0 0.0
2018-Apr-22 22:30N 51°54' E 004°16'0 0.0
2018-Apr-22 22:00N 51°54' E 004°16'0 0.0
2018-Apr-22 21:30N 51°54' E 004°16'0 0.0
2018-Apr-22 21:00N 51°54' E 004°16'0 0.0
2018-Apr-22 20:30N 51°54' E 004°16'0 0.0
2018-Apr-22 20:00N 51°54' E 004°16'0 0.0
2018-Apr-22 19:30N 51°54' E 004°16'0 0.0
2018-Apr-22 19:00N 51°54' E 004°16'0 0.0
2018-Apr-22 18:30N 51°54' E 004°16'0 0.0
2018-Apr-22 18:00N 51°54' E 004°16'0 0.0
2018-Apr-22 17:30N 51°54' E 004°16'0 0.0
2018-Apr-22 17:00N 51°54' E 004°16'0 0.0
2018-Apr-22 16:30N 51°54' E 004°16'0 0.0
2018-Apr-22 16:00N 51°54' E 004°16'0 0.4
2018-Apr-22 15:30N 51°53' E 004°16'0 0.1
2018-Apr-22 15:01N 51°53' E 004°16'0 0.3
2018-Apr-22 14:30N 51°53' E 004°16'0 0.3
2018-Apr-22 14:00N 51°53' E 004°16'0 0.4
2018-Apr-22 13:30N 51°54' E 004°16'0 0.0
2018-Apr-22 13:00N 51°54' E 004°16'0 0.7
2018-Apr-22 12:30N 51°53' E 004°16'0 0.2
2018-Apr-22 12:00N 51°53' E 004°16'0 0.1
2018-Apr-22 11:30N 51°53' E 004°16'0 0.2
2018-Apr-22 11:01N 51°53' E 004°16'0 0.6
2018-Apr-22 10:30N 51°54' E 004°16'0 0.0
2018-Apr-22 10:00N 51°54' E 004°16'0 0.5
2018-Apr-22 09:30N 51°53' E 004°16'0 0.3
2018-Apr-22 09:00N 51°53' E 004°16'0 0.3
2018-Apr-22 08:30N 51°53' E 004°17'0 0.1
2018-Apr-22 08:00N 51°53' E 004°17'0 0.3
2018-Apr-22 07:30N 51°53' E 004°16'0 0.1
2018-Apr-22 07:00N 51°53' E 004°16'0 0.3
2018-Apr-22 06:30N 51°53' E 004°16'0 0.0
2018-Apr-22 06:00N 51°53' E 004°16'0 0.0
2018-Apr-22 05:30N 51°53' E 004°16'0 0.0
2018-Apr-22 05:00N 51°53' E 004°16'0 0.0
2018-Apr-22 04:30N 51°53' E 004°16'0 0.8
2018-Apr-22 04:00N 51°54' E 004°16'0 0.0
2018-Apr-22 03:30N 51°54' E 004°16'0 0.0
2018-Apr-22 03:00N 51°54' E 004°16'0 0.0
2018-Apr-22 02:30N 51°54' E 004°16'0 0.0
2018-Apr-22 02:00N 51°54' E 004°16'0 0.0
2018-Apr-22 01:30N 51°54' E 004°16'0 0.0
2018-Apr-22 01:00N 51°54' E 004°16'0 0.0
2018-Apr-22 00:30N 51°54' E 004°16'0 0.0
2018-Apr-22 00:00N 51°54' E 004°16'0 0.0
2018-Apr-21 23:30N 51°54' E 004°16'0 0.0
2018-Apr-21 23:00N 51°54' E 004°16'0 0.0
2018-Apr-21 22:30N 51°54' E 004°16'0 0.0
2018-Apr-21 22:00N 51°54' E 004°16'0 0.0
2018-Apr-21 21:30N 51°54' E 004°16'0 0.0
2018-Apr-21 21:00N 51°54' E 004°16'0 0.0
2018-Apr-21 20:30N 51°54' E 004°16'0 0.0
2018-Apr-21 20:00N 51°54' E 004°16'0 0.0
2018-Apr-21 19:30N 51°54' E 004°16'0 0.0
2018-Apr-21 19:00N 51°54' E 004°16'0 0.0
2018-Apr-21 18:30N 51°54' E 004°16'0 0.0
2018-Apr-21 18:00N 51°54' E 004°16'0 0.0
2018-Apr-21 17:30N 51°54' E 004°16'0 0.0
2018-Apr-21 17:00N 51°54' E 004°16'0 0.0
2018-Apr-21 16:30N 51°54' E 004°16'0 0.0
2018-Apr-21 16:00N 51°54' E 004°16'0 0.0
2018-Apr-21 15:30N 51°54' E 004°16'0 0.4
2018-Apr-21 15:00N 51°53' E 004°16'0 0.0
2018-Apr-21 14:31N 51°53' E 004°16'0 0.3
2018-Apr-21 14:00N 51°53' E 004°17'0 0.4
2018-Apr-21 13:30N 51°53' E 004°16'0 0.1
2018-Apr-21 13:01N 51°53' E 004°16'0 0.2
2018-Apr-21 12:30N 51°53' E 004°17'0 0.3
2018-Apr-21 12:00N 51°53' E 004°16'0 0.2
2018-Apr-21 11:30N 51°53' E 004°16'0 0.2
2018-Apr-21 11:00N 51°53' E 004°17'0 0.5
2018-Apr-21 10:30N 51°54' E 004°16'0 0.0
2018-Apr-21 10:00N 51°54' E 004°16'0 0.4
2018-Apr-21 09:30N 51°53' E 004°16'0 0.1
2018-Apr-21 09:00N 51°53' E 004°16'0 0.2
2018-Apr-21 08:30N 51°53' E 004°16'0 0.4
2018-Apr-21 08:00N 51°53' E 004°17'0 0.3
2018-Apr-21 07:30N 51°53' E 004°16'0 0.1
2018-Apr-21 07:00N 51°53' E 004°16'0 0.2
2018-Apr-21 06:31N 51°53' E 004°17'0 0.3
2018-Apr-21 06:00N 51°53' E 004°16'0 0.2
2018-Apr-21 05:30N 51°53' E 004°17'0 0.1
2018-Apr-21 05:01N 51°53' E 004°17'0 0.0
2018-Apr-21 04:30N 51°53' E 004°17'0 0.7
2018-Apr-21 04:00N 51°54' E 004°16'0 0.0
2018-Apr-21 03:30N 51°54' E 004°16'0 0.0
2018-Apr-21 03:00N 51°54' E 004°16'0 0.0
2018-Apr-21 02:30N 51°54' E 004°16'0 0.0
2018-Apr-21 02:00N 51°54' E 004°16'0 0.0
2018-Apr-21 01:30N 51°54' E 004°16'0 0.0
2018-Apr-21 01:00N 51°54' E 004°16'0 0.0
2018-Apr-21 00:30N 51°54' E 004°16'0 0.0
2018-Apr-21 00:00N 51°54' E 004°16'0 0.0
2018-Apr-20 23:30N 51°54' E 004°16'0 0.0
2018-Apr-20 23:00N 51°54' E 004°16'0 0.0
2018-Apr-20 22:30N 51°54' E 004°16'0 0.0
2018-Apr-20 22:00N 51°54' E 004°16'0 0.0
2018-Apr-20 21:30N 51°54' E 004°16'0 0.0
2018-Apr-20 21:00N 51°54' E 004°16'0 0.0
2018-Apr-20 20:30N 51°54' E 004°16'0 0.0
2018-Apr-20 20:00N 51°54' E 004°16'0 0.0
2018-Apr-20 19:30N 51°54' E 004°16'0 0.0
2018-Apr-20 19:00N 51°54' E 004°16'0 0.0
2018-Apr-20 18:30N 51°54' E 004°16'0 0.0
2018-Apr-20 18:00N 51°54' E 004°16'0 0.0
2018-Apr-20 17:30N 51°54' E 004°16'0 0.0
2018-Apr-20 17:00N 51°54' E 004°16'0 0.0
2018-Apr-20 16:30N 51°54' E 004°16'0 0.0
2018-Apr-20 16:00N 51°54' E 004°16'0 0.3
2018-Apr-20 15:30N 51°53' E 004°16'0 0.2
2018-Apr-20 15:00N 51°54' E 004°16'0 0.6
2018-Apr-20 14:31N 51°53' E 004°17'0 0.3
2018-Apr-20 14:00N 51°53' E 004°16'0 0.3
2018-Apr-20 13:30N 51°54' E 004°16'0 0.6
2018-Apr-20 13:00N 51°53' E 004°17'0 0.3
2018-Apr-20 12:30N 51°53' E 004°17'0 0.7
2018-Apr-20 12:00N 51°53' E 004°17'0 0.8
2018-Apr-20 11:30N 51°53' E 004°17'0 0.3
2018-Apr-20 11:00N 51°53' E 004°17'0 0.6
2018-Apr-20 10:30N 51°53' E 004°17'0 0.1
2018-Apr-20 10:00N 51°53' E 004°17'0 0.3
2018-Apr-20 09:30N 51°53' E 004°17'0 0.1
2018-Apr-20 09:00N 51°53' E 004°17'0 0.3
2018-Apr-20 08:30N 51°53' E 004°17'0 0.2
2018-Apr-20 08:00N 51°53' E 004°17'0 0.1
2018-Apr-20 07:31N 51°53' E 004°17'0 0.1
2018-Apr-20 07:00N 51°53' E 004°17'0 0.8
2018-Apr-20 06:30N 51°54' E 004°16'0 0.5
2018-Apr-20 06:00N 51°53' E 004°17'0 0.2
2018-Apr-20 05:30N 51°53' E 004°16'0 0.1
2018-Apr-20 05:00N 51°53' E 004°16'0 0.0
2018-Apr-20 04:30N 51°53' E 004°16'0 0.5
2018-Apr-20 04:00N 51°54' E 004°16'0 0.0
2018-Apr-20 03:30N 51°54' E 004°16'0 0.0
2018-Apr-20 03:00N 51°54' E 004°16'0 0.0
2018-Apr-20 02:30N 51°54' E 004°16'0 0.0
2018-Apr-20 02:00N 51°54' E 004°16'0 0.0
2018-Apr-20 01:30N 51°54' E 004°16'0 0.0
2018-Apr-20 01:00N 51°54' E 004°16'0 0.0
2018-Apr-20 00:30N 51°54' E 004°16'0 0.0
2018-Apr-20 00:00N 51°54' E 004°16'0 0.0
2018-Apr-19 23:30N 51°54' E 004°16'0 0.0
2018-Apr-19 23:00N 51°54' E 004°16'0 0.0
2018-Apr-19 22:30N 51°54' E 004°16'0 0.0
2018-Apr-19 22:00N 51°54' E 004°16'0 0.0
2018-Apr-19 21:30N 51°54' E 004°16'0 0.0
2018-Apr-19 21:00N 51°54' E 004°16'0 0.0
2018-Apr-19 20:30N 51°54' E 004°16'0 0.0
2018-Apr-19 20:00N 51°54' E 004°16'0 0.0
2018-Apr-19 19:30N 51°54' E 004°16'0 0.0
2018-Apr-19 19:00N 51°54' E 004°16'0 0.0
2018-Apr-19 18:30N 51°54' E 004°16'0 0.0
2018-Apr-19 18:00N 51°54' E 004°16'0 0.0
2018-Apr-19 17:30N 51°54' E 004°16'0 0.0
2018-Apr-19 17:00N 51°54' E 004°16'0 0.0
2018-Apr-19 16:30N 51°54' E 004°16'0 0.0
2018-Apr-19 16:00N 51°54' E 004°16'0 0.0
2018-Apr-19 15:30N 51°54' E 004°16'0 0.0
2018-Apr-19 15:00N 51°54' E 004°16'0 0.4
2018-Apr-19 14:30N 51°53' E 004°16'0 0.1
2018-Apr-19 14:01N 51°53' E 004°16'0 0.4
2018-Apr-19 13:30N 51°54' E 004°16'0 0.1
2018-Apr-19 13:00N 51°54' E 004°16'0 0.3
2018-Apr-19 12:30N 51°53' E 004°16'0 0.3
2018-Apr-19 12:01N 51°54' E 004°16'0 0.3
2018-Apr-19 11:30N 51°53' E 004°16'0 0.1
2018-Apr-19 11:01N 51°53' E 004°16'0 0.5
2018-Apr-19 10:30N 51°54' E 004°16'0 0.0
2018-Apr-19 10:00N 51°54' E 004°16'0 0.3
2018-Apr-19 09:30N 51°53' E 004°16'0 0.2
2018-Apr-19 09:00N 51°54' E 004°16'0 0.3
2018-Apr-19 08:30N 51°53' E 004°16'0 0.0
2018-Apr-19 08:00N 51°53' E 004°16'0 0.1
2018-Apr-19 07:30N 51°53' E 004°16'0 0.1
2018-Apr-19 07:00N 51°54' E 004°16'0 0.2
2018-Apr-19 06:30N 51°54' E 004°16'0 0.1
2018-Apr-19 06:00N 51°54' E 004°16'0 0.1
2018-Apr-19 05:31N 51°53' E 004°16'0 0.3
2018-Apr-19 05:00N 51°54' E 004°16'0 0.0
2018-Apr-19 04:30N 51°54' E 004°16'0 0.1
2018-Apr-19 04:00N 51°54' E 004°16'0 0.1
2018-Apr-19 03:30N 51°54' E 004°16'0 0.0
2018-Apr-19 03:00N 51°54' E 004°16'0 0.0
2018-Apr-19 02:30N 51°54' E 004°16'0 0.0
2018-Apr-19 02:00N 51°54' E 004°16'0 0.0
2018-Apr-19 01:30N 51°54' E 004°16'0 0.0
2018-Apr-19 01:00N 51°54' E 004°16'0 0.0
2018-Apr-19 00:30N 51°54' E 004°16'0 0.0
2018-Apr-19 00:00N 51°54' E 004°16'0 0.0
2018-Apr-18 23:30N 51°54' E 004°16'0 0.0
2018-Apr-18 23:00N 51°54' E 004°16'0 0.0
2018-Apr-18 22:30N 51°54' E 004°16'0 0.0
2018-Apr-18 22:00N 51°54' E 004°16'0 0.0
2018-Apr-18 21:30N 51°54' E 004°16'0 0.0
2018-Apr-18 21:00N 51°54' E 004°16'0 0.0
2018-Apr-18 20:30N 51°54' E 004°16'0 0.0
2018-Apr-18 20:00N 51°54' E 004°16'0 0.0
2018-Apr-18 19:30N 51°54' E 004°16'0 0.0
2018-Apr-18 19:00N 51°54' E 004°16'0 0.0
2018-Apr-18 18:30N 51°54' E 004°16'0 0.0
2018-Apr-18 18:00N 51°54' E 004°16'0 0.0
2018-Apr-18 17:30N 51°54' E 004°16'0 0.0
2018-Apr-18 17:01N 51°54' E 004°16'0 0.0
2018-Apr-18 16:31N 51°54' E 004°16'0 0.0
2018-Apr-18 16:01N 51°54' E 004°16'0 0.2
2018-Apr-18 15:31N 51°54' E 004°16'0 0.1
2018-Apr-18 15:00N 51°53' E 004°16'0 0.1
2018-Apr-18 14:31N 51°53' E 004°16'0 0.3
2018-Apr-18 14:00N 51°54' E 004°16'0 0.0
2018-Apr-18 13:30N 51°54' E 004°16'0 0.0
2018-Apr-18 13:01N 51°54' E 004°16'0 0.0
2018-Apr-18 12:30N 51°54' E 004°16'0 0.0
2018-Apr-18 12:00N 51°54' E 004°16'0 0.0
2018-Apr-18 11:30N 51°54' E 004°16'0 0.1
2018-Apr-18 11:01N 51°54' E 004°16'0 0.1
2018-Apr-18 10:31N 51°54' E 004°16'0 0.4
2018-Apr-18 10:01N 51°53' E 004°16'0 0.0
2018-Apr-18 09:31N 51°53' E 004°16'0 0.0
2018-Apr-18 09:01N 51°53' E 004°16'0 0.3
2018-Apr-18 08:30N 51°53' E 004°17'3 5.5
2018-Apr-18 07:57N 51°54' E 004°21'4 9.5
2018-Apr-18 07:30N 51°54' E 004°28'4 7.2
2018-Apr-18 07:00N 51°54' E 004°34'4 8.6
2018-Apr-18 06:30N 51°51' E 004°39'3 6.8
2018-Apr-18 06:00N 51°49' E 004°44'4 8.3
2018-Apr-18 05:30N 51°49' E 004°50'1 2.2
2018-Apr-18 04:53N 51°49' E 004°53'0 0.0
2018-Apr-18 04:30N 51°49' E 004°53'0 0.0
2018-Apr-18 04:00N 51°49' E 004°53'0 0.0
2018-Apr-18 03:30N 51°49' E 004°53'0 0.0
2018-Apr-18 03:00N 51°49' E 004°53'0 0.0
2018-Apr-18 02:30N 51°49' E 004°53'0 0.0
2018-Apr-18 02:00N 51°49' E 004°53'0 0.0
2018-Apr-18 01:30N 51°49' E 004°53'0 0.0
2018-Apr-18 01:01N 51°49' E 004°53'0 0.0
2018-Apr-18 00:30N 51°49' E 004°53'0 0.0
2018-Apr-18 00:01N 51°49' E 004°53'0 0.0
2018-Apr-17 23:30N 51°49' E 004°53'0 0.0
2018-Apr-17 23:01N 51°49' E 004°53'0 0.0
2018-Apr-17 22:31N 51°49' E 004°53'0 0.0
2018-Apr-17 22:01N 51°49' E 004°53'0 0.0
2018-Apr-17 21:31N 51°49' E 004°53'0 0.0
2018-Apr-17 21:01N 51°49' E 004°53'0 0.0
2018-Apr-17 20:31N 51°49' E 004°53'0 0.0
2018-Apr-17 20:01N 51°49' E 004°53'0 0.0
2018-Apr-17 19:30N 51°49' E 004°53'0 0.0
2018-Apr-17 19:00N 51°49' E 004°53'0 0.0
2018-Apr-17 18:30N 51°49' E 004°53'0 0.0
2018-Apr-17 18:00N 51°49' E 004°53'0 0.0
2018-Apr-17 17:30N 51°49' E 004°53'0 0.0
2018-Apr-17 17:00N 51°49' E 004°53'0 0.0
2018-Apr-17 16:31N 51°49' E 004°53'0 0.0
2018-Apr-17 16:00N 51°49' E 004°53'0 0.0
2018-Apr-17 15:30N 51°49' E 004°53'0 0.0
2018-Apr-17 15:01N 51°49' E 004°53'0 0.0
2018-Apr-17 14:30N 51°49' E 004°53'0 0.1
2018-Apr-17 14:01N 51°49' E 004°53'0 0.1
2018-Apr-17 13:30N 51°49' E 004°53'0 0.0
2018-Apr-17 13:00N 51°49' E 004°53'0 0.0
2018-Apr-17 12:31N 51°49' E 004°53'0 0.0
2018-Apr-17 12:00N 51°49' E 004°53'0 0.0
2018-Apr-17 11:31N 51°49' E 004°53'0 0.0
2018-Apr-17 11:01N 51°49' E 004°53'0 0.0
2018-Apr-17 10:29N 51°49' E 004°53'0 0.0
2018-Apr-17 10:00N 51°49' E 004°53'0 0.0
2018-Apr-17 09:30N 51°49' E 004°53'0 0.0
2018-Apr-17 09:00N 51°49' E 004°53'0 0.0
2018-Apr-17 08:30N 51°49' E 004°53'0 0.0
2018-Apr-17 07:59N 51°49' E 004°53'0 0.0
2018-Apr-17 07:30N 51°49' E 004°53'0 0.0
2018-Apr-17 07:01N 51°49' E 004°53'0 0.0
2018-Apr-17 06:24N 51°49' E 004°53'0 0.0
2018-Apr-17 06:00N 51°49' E 004°53'0 0.0
2018-Apr-17 05:28N 51°49' E 004°53'0 0.0
2018-Apr-17 05:00N 51°49' E 004°53'0 0.0
2018-Apr-17 04:30N 51°49' E 004°53'0 0.0
2018-Apr-17 03:59N 51°49' E 004°53'0 0.0
2018-Apr-17 03:31N 51°49' E 004°53'0 0.0
2018-Apr-17 03:00N 51°49' E 004°53'0 0.0
2018-Apr-17 02:30N 51°49' E 004°53'0 0.0
2018-Apr-17 02:00N 51°49' E 004°53'0 0.0
2018-Apr-17 01:31N 51°49' E 004°53'0 0.0
2018-Apr-17 01:00N 51°49' E 004°53'0 0.0
2018-Apr-17 00:30N 51°49' E 004°53'0 0.0
2018-Apr-17 00:00N 51°49' E 004°53'0 0.0
2018-Apr-16 23:30N 51°49' E 004°53'0 0.0
2018-Apr-16 23:00N 51°49' E 004°53'0 0.0
2018-Apr-16 22:30N 51°49' E 004°53'0 0.0
2018-Apr-16 22:00N 51°49' E 004°53'0 0.0
2018-Apr-16 21:30N 51°49' E 004°53'0 0.0
2018-Apr-16 21:00N 51°49' E 004°53'0 0.0
2018-Apr-16 20:31N 51°49' E 004°53'0 0.0
2018-Apr-16 20:00N 51°49' E 004°53'0 0.0
2018-Apr-16 19:29N 51°49' E 004°53'0 0.0
2018-Apr-16 19:00N 51°49' E 004°53'0 0.0
2018-Apr-16 18:29N 51°49' E 004°53'0 0.0
2018-Apr-16 18:00N 51°49' E 004°53'0 0.0
2018-Apr-16 17:30N 51°49' E 004°53'0 0.0
2018-Apr-16 17:00N 51°49' E 004°53'0 0.0
2018-Apr-16 16:29N 51°49' E 004°53'0 0.0
2018-Apr-16 16:00N 51°49' E 004°53'0 0.0
2018-Apr-16 15:30N 51°49' E 004°53'0 0.0
2018-Apr-16 15:00N 51°49' E 004°53'0 0.0
2018-Apr-16 14:30N 51°49' E 004°53'0 0.0
2018-Apr-16 14:00N 51°49' E 004°53'0 0.2
2018-Apr-16 13:31N 51°49' E 004°53'0 0.0
2018-Apr-16 13:00N 51°49' E 004°53'0 0.0
2018-Apr-16 12:30N 51°49' E 004°53'0 0.0
2018-Apr-16 12:00N 51°49' E 004°53'0 0.0
2018-Apr-16 11:30N 51°49' E 004°53'0 0.0
2018-Apr-16 11:00N 51°49' E 004°53'0 0.0
2018-Apr-16 10:30N 51°49' E 004°53'0 0.0
2018-Apr-16 10:00N 51°49' E 004°53'0 0.0
2018-Apr-16 09:30N 51°49' E 004°53'0 0.0
2018-Apr-16 09:01N 51°49' E 004°53'0 0.0
2018-Apr-16 08:30N 51°49' E 004°53'0 0.0
2018-Apr-16 08:00N 51°49' E 004°53'0 0.0
2018-Apr-16 07:30N 51°49' E 004°53'0 0.0
2018-Apr-16 07:00N 51°49' E 004°53'0 0.0
2018-Apr-16 06:30N 51°49' E 004°53'0 0.0
2018-Apr-16 06:01N 51°49' E 004°53'0 0.0
2018-Apr-16 05:31N 51°49' E 004°53'0 0.0
2018-Apr-16 04:59N 51°49' E 004°53'0 0.0
2018-Apr-16 04:30N 51°49' E 004°53'0 0.0
2018-Apr-16 04:00N 51°49' E 004°53'0 0.0
2018-Apr-16 03:31N 51°49' E 004°53'0 0.0
2018-Apr-16 03:00N 51°49' E 004°53'0 0.0
2018-Apr-16 02:29N 51°49' E 004°53'0 0.0
2018-Apr-16 02:01N 51°49' E 004°53'0 0.0
2018-Apr-16 01:31N 51°49' E 004°53'0 0.0
2018-Apr-16 01:00N 51°49' E 004°53'0 0.0
2018-Apr-16 00:31N 51°49' E 004°53'0 0.0
2018-Apr-16 00:00N 51°49' E 004°53'0 0.0
2018-Apr-15 23:30N 51°49' E 004°53'0 0.0
2018-Apr-15 23:00N 51°49' E 004°53'0 0.0
2018-Apr-15 22:30N 51°49' E 004°53'0 0.0
2018-Apr-15 22:00N 51°49' E 004°53'0 0.0
2018-Apr-15 21:30N 51°49' E 004°53'0 0.0
2018-Apr-15 21:00N 51°49' E 004°53'0 0.0
2018-Apr-15 20:30N 51°49' E 004°53'0 0.0
2018-Apr-15 20:00N 51°49' E 004°53'0 0.0
2018-Apr-15 19:30N 51°49' E 004°53'0 0.0
2018-Apr-15 19:00N 51°49' E 004°53'0 0.0
2018-Apr-15 18:30N 51°49' E 004°53'  

Dump ship's entire track history